Time;durP1;ratioP1;P1;durP2;ratioP2;P2;SDS_P1;SDS_P2;PMS_P1;PMS_P2;Temp;Humidity;BMP_temperature;BMP_pressure;BME280_temperature;BME280_humidity;BME280_pressure;Samples;Min_cycle;Max_cycle;Signal;HPM_P1;HPM_P2
2021/04/08 00:01:11;;;;;;;10.98;3.55;;;;;;;;;;4125126;34;20088;-84
2021/04/08 00:03:40;;;;;;;11.02;3.92;;;;;;;;;;4124582;34;20335;-84
2021/04/08 00:06:08;;;;;;;11.07;3.40;;;;;;;;;;4125694;34;20065;-84
2021/04/08 00:08:36;;;;;;;10.07;3.45;;;;;;;;;;4125357;34;20397;-84
2021/04/08 00:11:05;;;;;;;6.72;3.03;;;;;;;;;;4124288;34;20100;-84
2021/04/08 00:13:34;;;;;;;7.55;3.37;;;;;;;;;;4125918;34;20091;-84
2021/04/08 00:16:02;;;;;;;11.02;3.00;;;;;;;;;;4121971;34;20084;-84
2021/04/08 00:18:31;;;;;;;14.90;3.50;;;;;;;;;;4126887;34;20053;-84
2021/04/08 00:20:59;;;;;;;7.15;3.58;;;;;;;;;;4122742;34;20118;-83
2021/04/08 00:23:27;;;;;;;8.93;3.17;;;;;;;;;;4120576;34;20065;-84
2021/04/08 00:25:58;;;;;;;9.05;3.20;;;;;;;;;;4128128;34;20104;-84
2021/04/08 00:28:26;;;;;;;9.77;3.40;;;;;;;;;;4122230;34;20500;-84
2021/04/08 00:30:54;;;;;;;7.28;3.20;;;;;;;;;;4124857;34;20135;-83
2021/04/08 00:33:23;;;;;;;8.05;3.10;;;;;;;;;;4126064;34;20570;-83
2021/04/08 00:35:58;;;;;;;7.75;3.25;;;;;;;;;;4123852;34;20703;-84
2021/04/08 00:38:27;;;;;;;7.22;3.15;;;;;;;;;;4122720;34;20563;-83
2021/04/08 00:40:55;;;;;;;12.55;3.42;;;;;;;;;;4127040;34;20100;-84
2021/04/08 00:43:23;;;;;;;6.25;3.12;;;;;;;;;;4125738;34;20056;-84
2021/04/08 00:45:54;;;;;;;6.47;2.72;;;;;;;;;;4123062;34;20131;-84
2021/04/08 00:48:23;;;;;;;5.03;2.58;;;;;;;;;;4127904;34;20462;-84
2021/04/08 00:50:51;;;;;;;8.68;3.20;;;;;;;;;;4128352;34;20076;-84
2021/04/08 00:53:20;;;;;;;8.70;2.85;;;;;;;;;;4121308;34;20078;-83
2021/04/08 00:55:52;;;;;;;8.20;3.20;;;;;;;;;;4123326;34;20105;-84
2021/04/08 00:58:21;;;;;;;7.10;3.33;;;;;;;;;;4122814;34;20069;-84
2021/04/08 01:00:49;;;;;;;11.98;9.20;;;;;;;;;;4127808;34;20079;-84
2021/04/08 01:03:20;;;;;;;7.60;2.85;;;;;;;;;;4123876;34;20049;-84
2021/04/08 01:05:49;;;;;;;9.25;3.05;;;;;;;;;;4124256;34;20180;-83
2021/04/08 01:08:17;;;;;;;7.10;2.90;;;;;;;;;;4122266;34;20095;-84
2021/04/08 01:10:45;;;;;;;6.05;2.83;;;;;;;;;;4129346;34;20188;-84
2021/04/08 01:13:15;;;;;;;10.80;3.50;;;;;;;;;;4124583;34;20764;-84
2021/04/08 01:15:43;;;;;;;7.97;3.25;;;;;;;;;;4128416;34;20041;-84
2021/04/08 01:18:33;;;;;;;7.20;2.62;;;;;;;;;;4125575;34;20453;-85
2021/04/08 01:21:04;;;;;;;6.47;3.05;;;;;;;;;;4120240;34;20118;-84
2021/04/08 01:23:34;;;;;;;10.30;3.70;;;;;;;;;;4123844;34;21815;-83
2021/04/08 01:26:19;;;;;;;10.52;3.35;;;;;;;;;;4124033;34;20621;-84
2021/04/08 01:28:49;;;;;;;8.40;3.12;;;;;;;;;;4125096;34;20528;-83
2021/04/08 01:31:18;;;;;;;8.82;3.60;;;;;;;;;;4124151;34;20589;-84
2021/04/08 01:33:56;;;;;;;8.15;3.47;;;;;;;;;;4124346;34;20079;-85
2021/04/08 01:36:30;;;;;;;7.62;3.47;;;;;;;;;;4122037;34;20570;-84
2021/04/08 01:39:03;;;;;;;8.20;3.15;;;;;;;;;;4121235;34;20066;-84
2021/04/08 01:41:36;;;;;;;6.57;2.62;;;;;;;;;;4121136;34;20087;-83
2021/04/08 01:44:05;;;;;;;7.78;3.05;;;;;;;;;;4124180;34;20090;-84
2021/04/08 01:46:35;;;;;;;6.07;2.75;;;;;;;;;;4126030;34;20069;-84
2021/04/08 01:49:05;;;;;;;7.00;2.70;;;;;;;;;;4126665;34;20454;-83
2021/04/08 01:51:35;;;;;;;7.18;2.70;;;;;;;;;;4122648;34;20079;-84
2021/04/08 01:54:04;;;;;;;9.23;3.12;;;;;;;;;;4125225;34;20049;-83
2021/04/08 01:56:36;;;;;;;7.30;2.90;;;;;;;;;;4125342;34;20124;-84
2021/04/08 01:59:05;;;;;;;8.70;2.85;;;;;;;;;;4123467;34;20087;-84
2021/04/08 02:01:36;;;;;;;5.55;2.83;;;;;;;;;;4123817;34;20064;-84
2021/04/08 02:04:07;;;;;;;9.18;3.30;;;;;;;;;;4127198;34;20505;-84
2021/04/08 02:06:37;;;;;;;12.00;3.47;;;;;;;;;;4129630;34;20080;-84
2021/04/08 02:09:05;;;;;;;8.32;2.97;;;;;;;;;;4123363;34;20092;-83
2021/04/08 02:11:35;;;;;;;8.85;3.40;;;;;;;;;;4129505;34;20065;-83
2021/04/08 02:14:04;;;;;;;7.87;3.30;;;;;;;;;;4127632;34;20065;-83
2021/04/08 02:16:33;;;;;;;8.32;2.95;;;;;;;;;;4127140;34;20393;-84
2021/04/08 02:19:02;;;;;;;6.93;2.70;;;;;;;;;;4122526;34;20191;-84
2021/04/08 02:21:30;;;;;;;5.28;2.47;;;;;;;;;;4123658;34;20439;-83
2021/04/08 02:23:59;;;;;;;10.48;3.58;;;;;;;;;;4129105;34;20146;-84
2021/04/08 02:26:27;;;;;;;8.80;3.15;;;;;;;;;;4127297;34;20079;-84
2021/04/08 02:28:56;;;;;;;6.93;3.20;;;;;;;;;;4122307;34;20100;-84
2021/04/08 02:31:24;;;;;;;5.60;2.60;;;;;;;;;;4121204;34;20081;-83
2021/04/08 02:33:52;;;;;;;9.93;3.12;;;;;;;;;;4129010;34;20057;-83
2021/04/08 02:36:23;;;;;;;9.25;3.40;;;;;;;;;;4126067;34;20064;-84
2021/04/08 02:38:51;;;;;;;7.90;2.50;;;;;;;;;;4124686;34;20084;-83
2021/04/08 02:41:22;;;;;;;8.43;2.75;;;;;;;;;;4124490;34;20075;-84
2021/04/08 02:43:51;;;;;;;9.25;3.15;;;;;;;;;;4128268;34;20065;-84
2021/04/08 02:46:18;;;;;;;4.75;2.62;;;;;;;;;;4125642;34;20147;-84
2021/04/08 02:48:47;;;;;;;6.37;3.15;;;;;;;;;;4124245;34;20157;-84
2021/04/08 02:51:20;;;;;;;7.25;3.00;;;;;;;;;;4121409;34;20344;-83
2021/04/08 02:53:53;;;;;;;8.25;3.10;;;;;;;;;;4123357;34;20257;-84
2021/04/08 02:56:37;;;;;;;9.57;3.67;;;;;;;;;;4125711;34;20087;-83
2021/04/08 02:59:09;;;;;;;8.18;3.10;;;;;;;;;;4118365;34;20112;-84
2021/04/08 03:01:55;;;;;;;5.75;3.00;;;;;;;;;;4124596;34;20146;-84
2021/04/08 03:04:24;;;;;;;5.87;2.80;;;;;;;;;;4126185;34;20079;-83
2021/04/08 03:06:52;;;;;;;9.70;2.85;;;;;;;;;;4125185;34;20500;-84
2021/04/08 03:09:26;;;;;;;8.65;2.95;;;;;;;;;;4121961;34;20399;-84
2021/04/08 03:11:56;;;;;;;7.22;3.30;;;;;;;;;;4135956;29;20057;-93
2021/04/08 03:14:29;;;;;;;7.45;2.90;;;;;;;;;;4110274;34;20384;-93
2021/04/08 03:16:59;;;;;;;5.30;2.60;;;;;;;;;;4098965;34;20123;-93
2021/04/08 03:19:29;;;;;;;6.75;2.97;;;;;;;;;;4103551;34;20140;-92
2021/04/08 03:22:00;;;;;;;6.65;2.67;;;;;;;;;;4115651;34;20095;-93
2021/04/08 03:24:30;;;;;;;7.57;3.10;;;;;;;;;;4114829;34;20478;-92
2021/04/08 03:27:01;;;;;;;8.30;2.78;;;;;;;;;;4109047;34;20099;-94
2021/04/08 03:29:39;;;;;;;7.35;2.90;;;;;;;;;;4114287;34;20193;-93
2021/04/08 03:32:12;;;;;;;;;;;;;;;;;;4110423;34;20569;-95
2021/04/08 03:34:42;;;;;;;6.00;2.65;;;;;;;;;;4107095;34;21137;-92
2021/04/08 03:37:13;;;;;;;6.20;2.58;;;;;;;;;;4119352;34;20080;-92
2021/04/08 03:39:49;;;;;;;5.95;2.80;;;;;;;;;;4125327;34;20487;-93
2021/04/08 03:42:25;;;;;;;5.30;2.70;;;;;;;;;;4127383;34;20065;-94
2021/04/08 03:45:07;;;;;;;5.22;2.60;;;;;;;;;;4106002;34;20461;-92
2021/04/08 03:47:42;;;;;;;5.90;2.70;;;;;;;;;;4108724;34;20097;-93
2021/04/08 03:50:15;;;;;;;6.60;2.70;;;;;;;;;;4116144;34;20065;-93
2021/04/08 03:52:44;;;;;;;5.90;2.53;;;;;;;;;;4110463;34;20128;-93
2021/04/08 03:55:25;;;;;;;5.05;2.70;;;;;;;;;;4108578;34;20101;-92
2021/04/08 03:57:54;;;;;;;7.35;2.80;;;;;;;;;;4117741;34;20499;-93
2021/04/08 04:00:48;;;;;;;9.43;3.10;;;;;;;;;;4102834;34;20053;-94
2021/04/08 04:03:24;;;;;;;9.00;3.12;;;;;;;;;;4120319;34;20053;-94
2021/04/08 04:05:53;;;;;;;6.15;3.08;;;;;;;;;;4117696;34;20075;-93
2021/04/08 04:08:27;;;;;;;6.87;3.00;;;;;;;;;;4115879;34;20702;-92
2021/04/08 04:10:55;;;;;;;6.68;3.33;;;;;;;;;;4119550;34;20062;-93
2021/04/08 04:13:26;;;;;;;9.40;3.55;;;;;;;;;;4116120;34;20123;-95
2021/04/08 04:15:57;;;;;;;5.35;3.20;;;;;;;;;;4120796;34;20486;-92
2021/04/08 04:18:25;;;;;;;8.90;3.37;;;;;;;;;;4121683;34;20073;-93
2021/04/08 04:20:59;;;;;;;7.13;3.47;;;;;;;;;;4115932;34;20519;-95
2021/04/08 04:23:30;;;;;;;9.38;3.20;;;;;;;;;;4111019;34;20065;-92
2021/04/08 04:26:01;;;;;;;8.88;3.37;;;;;;;;;;4118793;34;20397;-93
2021/04/08 04:28:33;;;;;;;9.40;3.50;;;;;;;;;;4118279;34;20084;-92
2021/04/08 04:31:03;;;;;;;5.40;3.22;;;;;;;;;;4119968;34;20089;-92
2021/04/08 04:33:37;;;;;;;8.85;3.47;;;;;;;;;;4131375;34;20061;-93
2021/04/08 04:36:06;;;;;;;8.98;3.12;;;;;;;;;;4121936;34;20069;-94
2021/04/08 04:38:38;;;;;;;7.80;2.95;;;;;;;;;;4118560;34;20052;-92
2021/04/08 04:41:06;;;;;;;8.93;3.80;;;;;;;;;;4108650;34;20057;-92
2021/04/08 04:43:36;;;;;;;7.78;3.30;;;;;;;;;;4111377;34;20057;-93
2021/04/08 04:46:07;;;;;;;9.60;4.07;;;;;;;;;;4108982;34;20109;-93
2021/04/08 04:48:48;;;;;;;;;;;;;;;;;;;;;
2021/04/08 04:51:17;;;;;;;9.60;3.50;;;;;;;;;;4116863;34;20463;-93
2021/04/08 04:53:46;;;;;;;8.95;3.22;;;;;;;;;;4104703;35;20140;-92
2021/04/08 04:56:18;;;;;;;7.37;3.33;;;;;;;;;;4108894;34;20132;-91
2021/04/08 04:58:46;;;;;;;13.32;3.45;;;;;;;;;;4113463;34;20094;-92
2021/04/08 05:01:14;;;;;;;10.50;3.83;;;;;;;;;;4109582;34;20056;-94
2021/04/08 05:03:49;;;;;;;9.45;3.70;;;;;;;;;;4111026;34;20069;-92
2021/04/08 05:06:22;;;;;;;11.88;3.97;;;;;;;;;;4125900;34;20448;-92
2021/04/08 05:08:56;;;;;;;8.73;2.90;;;;;;;;;;4129470;34;20443;-95
2021/04/08 05:11:24;;;;;;;6.78;3.40;;;;;;;;;;4118941;34;20094;-93
2021/04/08 05:13:55;;;;;;;7.37;3.50;;;;;;;;;;4122155;34;20129;-91
2021/04/08 05:16:28;;;;;;;11.43;3.62;;;;;;;;;;4110101;34;20066;-93
2021/04/08 05:18:58;;;;;;;8.38;3.70;;;;;;;;;;4113376;34;20413;-92
2021/04/08 05:21:29;;;;;;;7.85;3.35;;;;;;;;;;4107436;35;20062;-92
2021/04/08 05:24:02;;;;;;;9.13;3.03;;;;;;;;;;4117312;34;20085;-94
2021/04/08 05:26:30;;;;;;;9.18;3.60;;;;;;;;;;4115316;34;20107;-94
2021/04/08 05:29:05;;;;;;;8.55;3.83;;;;;;;;;;4118832;34;20722;-92
2021/04/08 05:31:40;;;;;;;13.23;3.72;;;;;;;;;;4122666;34;20342;-93
2021/04/08 05:34:31;;;;;;;9.25;3.90;;;;;;;;;;4111678;34;20073;-93
2021/04/08 05:36:58;;;;;;;15.30;4.22;;;;;;;;;;4124716;34;20096;-93
2021/04/08 05:39:28;;;;;;;10.95;3.90;;;;;;;;;;4118888;34;20160;-93
2021/04/08 05:42:00;;;;;;;9.80;3.58;;;;;;;;;;4113076;34;20045;-92
2021/04/08 05:44:31;;;;;;;10.20;4.15;;;;;;;;;;4117924;34;20168;-93
2021/04/08 05:47:01;;;;;;;8.38;3.45;;;;;;;;;;4116729;34;20621;-94
2021/04/08 05:49:34;;;;;;;10.55;4.03;;;;;;;;;;4111541;34;20053;-94
2021/04/08 05:52:06;;;;;;;8.80;3.92;;;;;;;;;;4106662;34;20119;-93
2021/04/08 05:54:38;;;;;;;12.27;4.37;;;;;;;;;;4107322;34;20132;-92
2021/04/08 05:57:18;;;;;;;10.05;3.87;;;;;;;;;;4110072;34;20075;-91
2021/04/08 05:59:49;;;;;;;9.15;3.58;;;;;;;;;;4102020;34;20065;-92
2021/04/08 06:02:24;;;;;;;11.15;4.35;;;;;;;;;;4111508;34;20069;-92
2021/04/08 06:04:55;;;;;;;7.10;3.47;;;;;;;;;;4108577;34;20104;-92
2021/04/08 06:07:23;;;;;;;8.60;3.50;;;;;;;;;;4109237;34;20137;-92
2021/04/08 06:09:55;;;;;;;8.43;4.00;;;;;;;;;;4108984;34;20160;-93
2021/04/08 06:12:25;;;;;;;9.23;4.10;;;;;;;;;;4116701;34;20053;-92
2021/04/08 06:14:55;;;;;;;10.35;4.07;;;;;;;;;;4106318;34;20096;-92
2021/04/08 06:17:28;;;;;;;7.97;3.25;;;;;;;;;;4112572;34;20113;-94
2021/04/08 06:20:03;;;;;;;8.05;3.85;;;;;;;;;;4107558;34;20112;-91
2021/04/08 06:22:38;;;;;;;11.77;4.20;;;;;;;;;;4107796;34;20135;-92
2021/04/08 06:25:18;;;;;;;10.55;3.60;;;;;;;;;;4104165;34;20089;-92
2021/04/08 06:27:56;;;;;;;7.35;3.60;;;;;;;;;;4123553;34;20107;-93
2021/04/08 06:30:31;;;;;;;10.45;3.47;;;;;;;;;;4114786;34;20074;-91
2021/04/08 06:33:06;;;;;;;12.07;3.60;;;;;;;;;;4107711;34;20119;-94
2021/04/08 06:35:53;;;;;;;9.10;3.70;;;;;;;;;;4112198;34;20065;-92
2021/04/08 06:38:23;;;;;;;7.65;3.80;;;;;;;;;;4102407;34;20612;-92
2021/04/08 06:40:56;;;;;;;8.65;3.08;;;;;;;;;;4101559;34;20123;-92
2021/04/08 06:43:26;;;;;;;10.30;3.37;;;;;;;;;;4118324;34;20097;-92
2021/04/08 06:46:01;;;;;;;7.43;3.40;;;;;;;;;;4111826;34;20117;-93
2021/04/08 06:48:33;;;;;;;7.10;3.42;;;;;;;;;;4114785;34;20533;-92
2021/04/08 06:51:02;;;;;;;8.07;3.72;;;;;;;;;;4110651;34;20105;-94
2021/04/08 06:53:39;;;;;;;9.80;3.58;;;;;;;;;;4103579;34;20533;-94
2021/04/08 06:56:13;;;;;;;6.62;3.28;;;;;;;;;;4104182;34;20110;-92
2021/04/08 06:58:44;;;;;;;29.65;20.98;;;;;;;;;;4105352;34;20109;-95
2021/04/08 07:01:32;;;;;;;14.82;8.23;;;;;;;;;;4107061;34;20180;-92
2021/04/08 07:04:11;;;;;;;18.35;14.48;;;;;;;;;;4115904;34;20065;-92
2021/04/08 07:06:40;;;;;;;20.42;16.40;;;;;;;;;;4112584;34;20087;-92
2021/04/08 07:09:14;;;;;;;12.32;5.20;;;;;;;;;;4122051;34;20057;-93
2021/04/08 07:11:46;;;;;;;19.67;17.58;;;;;;;;;;4105589;34;20092;-95
2021/04/08 07:14:17;;;;;;;9.60;8.15;;;;;;;;;;4107502;34;20113;-93
2021/04/08 07:16:53;;;;;;;10.68;7.95;;;;;;;;;;4116808;34;20195;-94
2021/04/08 07:19:36;;;;;;;6.15;2.67;;;;;;;;;;4117008;34;20127;-94
2021/04/08 07:22:18;;;;;;;9.70;3.42;;;;;;;;;;4106970;34;20396;-94
2021/04/08 07:24:54;;;;;;;17.48;15.60;;;;;;;;;;4110984;34;20073;-93
2021/04/08 07:27:23;;;;;;;22.77;14.35;;;;;;;;;;4123573;34;20037;-92
2021/04/08 07:29:53;;;;;;;7.22;3.95;;;;;;;;;;4126635;34;20340;-94
2021/04/08 07:32:29;;;;;;;6.70;3.10;;;;;;;;;;4109620;34;20096;-94
2021/04/08 07:35:14;;;;;;;7.78;3.42;;;;;;;;;;4126251;34;20085;-93
2021/04/08 07:37:43;;;;;;;12.75;7.85;;;;;;;;;;4125119;34;20053;-93
2021/04/08 07:40:21;;;;;;;16.92;12.10;;;;;;;;;;4109865;34;20053;-93
2021/04/08 07:42:50;;;;;;;7.07;2.85;;;;;;;;;;4106726;34;20177;-95
2021/04/08 07:45:28;;;;;;;8.77;6.30;;;;;;;;;;4114180;34;20054;-95
2021/04/08 07:48:00;;;;;;;6.40;3.03;;;;;;;;;;4118666;34;20116;-95
2021/04/08 07:50:31;;;;;;;7.65;2.60;;;;;;;;;;4120145;34;20120;-95
2021/04/08 07:53:23;;;;;;;5.60;2.85;;;;;;;;;;4120221;34;20096;-96
2021/04/08 07:55:52;;;;;;;6.80;2.05;;;;;;;;;;4110682;34;20069;-94
2021/04/08 07:58:25;;;;;;;6.47;2.00;;;;;;;;;;4117407;34;20140;-95
2021/04/08 08:00:55;;;;;;;4.20;1.60;;;;;;;;;;4118128;34;20103;-96
2021/04/08 08:03:36;;;;;;;5.20;1.60;;;;;;;;;;4120592;34;20065;-94
2021/04/08 08:06:11;;;;;;;4.47;1.45;;;;;;;;;;4122823;34;20756;-95
2021/04/08 08:08:49;;;;;;;4.80;1.40;;;;;;;;;;4112489;34;20581;-95
2021/04/08 08:11:24;;;;;;;4.15;1.40;;;;;;;;;;4110623;34;20041;-96
2021/04/08 08:14:04;;;;;;;6.53;1.37;;;;;;;;;;4113573;34;20457;-96
2021/04/08 08:16:33;;;;;;;6.55;1.62;;;;;;;;;;4115230;34;20120;-96
2021/04/08 08:19:07;;;;;;;4.07;1.52;;;;;;;;;;4113060;34;20427;-96
2021/04/08 08:21:42;;;;;;;6.35;1.50;;;;;;;;;;4102149;34;20155;-96
2021/04/08 08:24:15;;;;;;;5.40;1.70;;;;;;;;;;4125775;34;20100;-96
2021/04/08 08:26:47;;;;;;;10.73;2.20;;;;;;;;;;4114362;34;20111;-96
2021/04/08 08:29:33;;;;;;;4.53;1.60;;;;;;;;;;4103098;34;20061;-96
2021/04/08 08:32:05;;;;;;;4.82;1.75;;;;;;;;;;4110481;34;20061;-95
2021/04/08 08:34:40;;;;;;;4.35;1.30;;;;;;;;;;4110399;34;20127;-96
2021/04/08 08:37:13;;;;;;;4.05;1.50;;;;;;;;;;4110418;34;20404;-96
2021/04/08 08:39:42;;;;;;;8.25;2.00;;;;;;;;;;4115093;34;20096;-95
2021/04/08 08:42:15;;;;;;;11.05;2.10;;;;;;;;;;4118730;34;20127;-95
2021/04/08 08:44:46;;;;;;;8.38;2.20;;;;;;;;;;4111675;34;20084;-95
2021/04/08 08:47:21;;;;;;;5.78;1.98;;;;;;;;;;4113708;34;20444;-95
2021/04/08 08:50:12;;;;;;;5.78;2.03;;;;;;;;;;4103750;34;20551;-95
2021/04/08 08:52:45;;;;;;;6.43;1.80;;;;;;;;;;4103214;34;20109;-94
2021/04/08 08:55:15;;;;;;;7.32;2.05;;;;;;;;;;4117752;34;20457;-95
2021/04/08 08:57:54;;;;;;;7.60;2.17;;;;;;;;;;4107111;34;20303;-96
2021/04/08 09:00:29;;;;;;;7.28;2.20;;;;;;;;;;4119759;34;20096;-96
2021/04/08 09:03:33;;;;;;;7.57;1.90;;;;;;;;;;4109060;34;20456;-96
2021/04/08 09:06:25;;;;;;;4.37;1.35;;;;;;;;;;4073207;35;20125;-94
2021/04/08 09:09:09;;;;;;;5.35;1.60;;;;;;;;;;4072209;35;20152;-96
2021/04/08 09:11:52;;;;;;;6.07;1.67;;;;;;;;;;4077436;35;20101;-96
2021/04/08 09:14:58;;;;;;;7.78;2.15;;;;;;;;;;4071450;35;20563;-96
2021/04/08 09:17:55;;;;;;;3.62;1.35;;;;;;;;;;4074088;35;20164;-96
2021/04/08 09:20:24;;;;;;;5.93;1.67;;;;;;;;;;4058734;35;20078;-96
2021/04/08 09:23:07;;;;;;;9.50;1.90;;;;;;;;;;4060518;35;20085;-96
2021/04/08 09:25:55;;;;;;;7.22;2.10;;;;;;;;;;4070224;35;20054;-96
2021/04/08 09:28:34;;;;;;;4.07;1.60;;;;;;;;;;4066322;35;20706;-96
2021/04/08 09:35:02;;;;;;;7.03;2.00;;;;;;;;;;4564065;29;20000;-85
2021/04/08 09:37:45;;;;;;;4.80;1.52;;;;;;;;;;4080607;35;20212;-85
2021/04/08 09:40:23;;;;;;;3.67;1.65;;;;;;;;;;4094216;34;20536;-83
2021/04/08 09:42:57;;;;;;;7.15;1.85;;;;;;;;;;4108377;34;20065;-83
2021/04/08 09:45:25;;;;;;;9.45;1.90;;;;;;;;;;4112669;34;20133;-84
2021/04/08 09:48:12;;;;;;;6.25;1.87;;;;;;;;;;4111060;34;20096;-86
2021/04/08 09:50:44;;;;;;;5.22;1.95;;;;;;;;;;4112004;34;20180;-86
2021/04/08 09:53:13;;;;;;;6.37;1.65;;;;;;;;;;4115413;34;20105;-86
2021/04/08 09:55:48;;;;;;;5.75;1.90;;;;;;;;;;4111121;34;20065;-86
2021/04/08 09:58:36;;;;;;;4.82;1.90;;;;;;;;;;4106249;34;20069;-86
2021/04/08 10:01:08;;;;;;;4.15;1.52;;;;;;;;;;4109795;34;20049;-86
2021/04/08 10:03:38;;;;;;;5.97;1.85;;;;;;;;;;4112349;34;20062;-86
2021/04/08 10:06:16;;;;;;;5.85;1.95;;;;;;;;;;4110091;34;20107;-84
2021/04/08 10:08:45;;;;;;;8.10;2.08;;;;;;;;;;4109276;34;20262;-83
2021/04/08 10:11:13;;;;;;;5.25;1.77;;;;;;;;;;4114290;34;20110;-83
2021/04/08 10:13:41;;;;;;;16.05;2.40;;;;;;;;;;4108491;34;20482;-84
2021/04/08 10:16:17;;;;;;;6.82;2.03;;;;;;;;;;4108231;34;20076;-84
2021/04/08 10:18:45;;;;;;;6.03;1.92;;;;;;;;;;4110708;34;20073;-84
2021/04/08 10:21:15;;;;;;;5.55;1.70;;;;;;;;;;4112929;34;20065;-83
2021/04/08 10:23:43;;;;;;;5.15;1.50;;;;;;;;;;4110367;34;20109;-83
2021/04/08 10:26:15;;;;;;;5.82;1.80;;;;;;;;;;4111812;34;20454;-84
2021/04/08 10:28:44;;;;;;;;;;;;;;;;;;4112111;34;20073;-84
2021/04/08 10:31:21;;;;;;;3.95;1.62;;;;;;;;;;4112873;34;19975;-84
2021/04/08 10:34:10;;;;;;;5.95;1.83;;;;;;;;;;4114769;34;20070;-84
2021/04/08 10:36:39;;;;;;;5.07;1.70;;;;;;;;;;4109872;34;20381;-84
2021/04/08 10:39:16;;;;;;;5.32;1.50;;;;;;;;;;4105937;34;20093;-84
2021/04/08 10:42:00;;;;;;;6.45;1.65;;;;;;;;;;4108856;34;20657;-84
2021/04/08 10:44:33;;;;;;;5.20;1.60;;;;;;;;;;4107531;34;20045;-84
2021/04/08 10:47:13;;;;;;;6.93;1.70;;;;;;;;;;4110726;34;20164;-83
2021/04/08 10:49:48;;;;;;;5.30;1.60;;;;;;;;;;4105345;34;20128;-83
2021/04/08 10:52:19;;;;;;;9.85;2.30;;;;;;;;;;4112400;34;20434;-83
2021/04/08 10:54:52;;;;;;;4.78;1.70;;;;;;;;;;4105515;34;20061;-83
2021/04/08 10:57:19;;;;;;;;;;;;;;;;;;4112507;34;20132;-84
2021/04/08 10:59:48;;;;;;;28.52;3.08;;;;;;;;;;4108949;34;19956;-83
2021/04/08 11:02:37;;;;;;;4.87;1.70;;;;;;;;;;4112056;34;20071;-83
2021/04/08 11:05:07;;;;;;;5.87;1.40;;;;;;;;;;4107307;34;20049;-83
2021/04/08 11:07:40;;;;;;;4.55;1.70;;;;;;;;;;4100958;34;20065;-83
2021/04/08 11:10:09;;;;;;;8.27;1.75;;;;;;;;;;4111604;34;20140;-84
2021/04/08 11:12:39;;;;;;;6.75;1.73;;;;;;;;;;4106470;34;20058;-84
2021/04/08 11:15:08;;;;;;;5.50;1.77;;;;;;;;;;4111809;34;20451;-83
2021/04/08 11:17:40;;;;;;;6.07;1.55;;;;;;;;;;4107606;34;20092;-84
2021/04/08 11:20:08;;;;;;;7.93;1.90;;;;;;;;;;4111980;34;20115;-83
2021/04/08 11:22:41;;;;;;;8.85;1.87;;;;;;;;;;4109169;34;20527;-83
2021/04/08 11:25:10;;;;;;;5.97;1.77;;;;;;;;;;4116765;34;20071;-83
2021/04/08 11:27:40;;;;;;;3.97;1.67;;;;;;;;;;4111986;34;20057;-83
2021/04/08 11:30:09;;;;;;;4.50;1.50;;;;;;;;;;4107733;34;20057;-83
2021/04/08 11:32:44;;;;;;;5.53;1.70;;;;;;;;;;4113483;34;20119;-83
2021/04/08 11:35:23;;;;;;;6.43;1.90;;;;;;;;;;4103149;34;20557;-83
2021/04/08 11:37:51;;;;;;;4.75;1.50;;;;;;;;;;4099891;34;20053;-84
2021/04/08 11:40:21;;;;;;;7.47;1.65;;;;;;;;;;4101737;34;20489;-83
2021/04/08 11:43:21;;;;;;;9.40;2.10;;;;;;;;;;4106105;34;20152;-83
2021/04/08 11:45:51;;;;;;;4.93;1.75;;;;;;;;;;4101670;34;20537;-83
2021/04/08 11:48:22;;;;;;;7.22;1.95;;;;;;;;;;4105256;34;20080;-83
2021/04/08 11:50:51;;;;;;;6.57;1.77;;;;;;;;;;4107850;34;20185;-83
2021/04/08 11:53:19;;;;;;;10.60;2.30;;;;;;;;;;4107277;34;20152;-83
2021/04/08 11:55:51;;;;;;;10.02;2.10;;;;;;;;;;4102902;34;20087;-83
2021/04/08 11:58:25;;;;;;;22.67;3.37;;;;;;;;;;4100130;34;20088;-83
2021/04/08 12:00:53;;;;;;;7.05;1.77;;;;;;;;;;4103196;34;20108;-83
2021/04/08 12:03:25;;;;;;;6.12;1.62;;;;;;;;;;4111524;34;20347;-84
2021/04/08 12:05:53;;;;;;;4.12;1.70;;;;;;;;;;4108528;34;20126;-83
2021/04/08 12:08:40;;;;;;;9.95;2.10;;;;;;;;;;4105924;34;20054;-83
2021/04/08 12:11:08;;;;;;;6.22;1.87;;;;;;;;;;4112565;34;20054;-83
2021/04/08 12:13:37;;;;;;;25.80;3.15;;;;;;;;;;4108032;34;20120;-83
2021/04/08 12:16:06;;;;;;;6.18;1.92;;;;;;;;;;4105009;34;20101;-83
2021/04/08 12:18:39;;;;;;;4.97;1.75;;;;;;;;;;4097795;34;20151;-86
2021/04/08 12:21:12;;;;;;;16.25;2.70;;;;;;;;;;4099278;34;20211;-86
2021/04/08 12:23:40;;;;;;;7.53;1.70;;;;;;;;;;4113400;34;20061;-86
2021/04/08 12:26:08;;;;;;;5.43;1.98;;;;;;;;;;4111074;34;20087;-86
2021/04/08 12:28:36;;;;;;;12.55;2.10;;;;;;;;;;4107663;34;20081;-86
2021/04/08 12:31:05;;;;;;;9.48;2.20;;;;;;;;;;4116862;34;20065;-86
2021/04/08 12:33:34;;;;;;;4.65;1.67;;;;;;;;;;4110251;34;20435;-86
2021/04/08 12:36:03;;;;;;;8.75;2.25;;;;;;;;;;4114506;34;20127;-86
2021/04/08 12:38:32;;;;;;;13.62;2.60;;;;;;;;;;4114697;34;20069;-85
2021/04/08 12:41:01;;;;;;;8.05;2.03;;;;;;;;;;4117608;34;20101;-85
2021/04/08 12:43:30;;;;;;;5.35;2.00;;;;;;;;;;4111649;34;20439;-86
2021/04/08 12:45:58;;;;;;;9.80;2.00;;;;;;;;;;4105020;34;20434;-85
2021/04/08 12:48:26;;;;;;;10.52;1.80;;;;;;;;;;4098686;34;20112;-85
2021/04/08 12:50:56;;;;;;;6.32;1.70;;;;;;;;;;4104079;34;20139;-85
2021/04/08 12:53:24;;;;;;;6.55;2.15;;;;;;;;;;4105651;34;20558;-86
2021/04/08 12:55:54;;;;;;;6.30;1.58;;;;;;;;;;4112778;34;20401;-86
2021/04/08 12:58:24;;;;;;;6.80;1.90;;;;;;;;;;4109480;34;20906;-85
2021/04/08 13:00:52;;;;;;;6.75;1.85;;;;;;;;;;4109261;34;20113;-85
2021/04/08 13:03:20;;;;;;;9.02;2.05;;;;;;;;;;4112646;34;20065;-86
2021/04/08 13:05:48;;;;;;;6.32;1.83;;;;;;;;;;4110470;34;20065;-85
2021/04/08 13:08:17;;;;;;;5.85;1.55;;;;;;;;;;4106231;34;20071;-85
2021/04/08 13:10:45;;;;;;;6.07;1.60;;;;;;;;;;4111988;34;20455;-85
2021/04/08 13:13:14;;;;;;;7.70;1.98;;;;;;;;;;4104524;34;20480;-85
2021/04/08 13:15:41;;;;;;;4.85;1.45;;;;;;;;;;4106501;34;20622;-84
2021/04/08 13:18:10;;;;;;;9.25;1.90;;;;;;;;;;4104674;34;20096;-86
2021/04/08 13:20:38;;;;;;;5.15;1.73;;;;;;;;;;4105494;34;20454;-85
2021/04/08 13:23:06;;;;;;;6.65;1.42;;;;;;;;;;4111458;34;20113;-85
2021/04/08 13:25:35;;;;;;;7.87;2.00;;;;;;;;;;4109487;34;20491;-85
2021/04/08 13:28:03;;;;;;;7.70;2.00;;;;;;;;;;4105415;34;20112;-85
2021/04/08 13:30:31;;;;;;;4.90;1.60;;;;;;;;;;4108714;34;20085;-85
2021/04/08 13:33:00;;;;;;;6.22;1.83;;;;;;;;;;4108170;34;20080;-86
2021/04/08 13:35:28;;;;;;;7.95;1.83;;;;;;;;;;4111715;34;20053;-85
2021/04/08 13:37:56;;;;;;;5.00;1.70;;;;;;;;;;4111405;34;20437;-85
2021/04/08 13:40:25;;;;;;;5.87;1.40;;;;;;;;;;4113326;34;20061;-86
2021/04/08 13:42:53;;;;;;;5.57;1.67;;;;;;;;;;4116616;34;20053;-86
2021/04/08 13:45:21;;;;;;;4.18;1.55;;;;;;;;;;4114483;34;20062;-86
2021/04/08 13:47:50;;;;;;;7.95;1.95;;;;;;;;;;4103032;34;20088;-85
2021/04/08 13:50:20;;;;;;;8.07;1.73;;;;;;;;;;4106205;34;20057;-86
2021/04/08 13:52:48;;;;;;;6.80;1.70;;;;;;;;;;4109017;34;20089;-85
2021/04/08 13:55:17;;;;;;;4.85;1.52;;;;;;;;;;4108304;34;20124;-85
2021/04/08 13:57:46;;;;;;;5.45;1.65;;;;;;;;;;4105026;34;20117;-86
2021/04/08 14:00:21;;;;;;;5.18;1.73;;;;;;;;;;4109540;34;20061;-85
2021/04/08 14:03:16;;;;;;;5.30;1.50;;;;;;;;;;4110129;34;20104;-85
2021/04/08 14:05:43;;;;;;;5.80;1.60;;;;;;;;;;4108844;34;20457;-86
2021/04/08 14:08:19;;;;;;;8.15;1.83;;;;;;;;;;4105022;34;20089;-85
2021/04/08 14:10:53;;;;;;;9.20;1.90;;;;;;;;;;4109553;34;20206;-85
2021/04/08 14:13:26;;;;;;;5.65;1.70;;;;;;;;;;4115901;34;20800;-85
2021/04/08 14:15:55;;;;;;;6.35;1.50;;;;;;;;;;4108044;34;21421;-86
2021/04/08 14:18:23;;;;;;;6.47;1.67;;;;;;;;;;4107766;34;20101;-85
2021/04/08 14:20:51;;;;;;;4.78;1.50;;;;;;;;;;4106044;34;20066;-86
2021/04/08 14:23:19;;;;;;;8.32;1.65;;;;;;;;;;4111946;34;20402;-85
2021/04/08 14:25:48;;;;;;;5.93;1.60;;;;;;;;;;4108712;34;20050;-86
2021/04/08 14:28:16;;;;;;;6.68;1.98;;;;;;;;;;4107190;34;20411;-86
2021/04/08 14:30:44;;;;;;;5.57;2.00;;;;;;;;;;4107273;34;20054;-85
2021/04/08 14:33:13;;;;;;;8.40;2.28;;;;;;;;;;4112725;34;20061;-86
2021/04/08 14:35:42;;;;;;;7.47;1.98;;;;;;;;;;4107251;34;20128;-86
2021/04/08 14:38:11;;;;;;;5.80;1.80;;;;;;;;;;4108637;34;20061;-86
2021/04/08 14:40:40;;;;;;;6.93;1.80;;;;;;;;;;4113220;34;20057;-85
2021/04/08 14:43:08;;;;;;;6.95;1.90;;;;;;;;;;4109619;34;20123;-85
2021/04/08 14:45:36;;;;;;;7.93;1.87;;;;;;;;;;4103640;34;20064;-85
2021/04/08 14:48:05;;;;;;;7.93;1.70;;;;;;;;;;4107621;34;20065;-85
2021/04/08 14:50:33;;;;;;;5.72;1.55;;;;;;;;;;4106201;34;22225;-86
2021/04/08 14:53:01;;;;;;;4.22;1.45;;;;;;;;;;4110806;34;20255;-86
2021/04/08 14:55:32;;;;;;;6.65;1.55;;;;;;;;;;4111957;34;20385;-86
2021/04/08 14:58:00;;;;;;;7.43;1.83;;;;;;;;;;4109521;34;20168;-86
2021/04/08 15:00:34;;;;;;;7.82;1.87;;;;;;;;;;4111904;34;20144;-85
2021/04/08 15:03:02;;;;;;;6.93;1.87;;;;;;;;;;4108465;34;20061;-84
2021/04/08 15:05:30;;;;;;;10.98;2.10;;;;;;;;;;4107871;34;20101;-86
2021/04/08 15:07:59;;;;;;;8.70;1.70;;;;;;;;;;4109518;34;20061;-84
2021/04/08 15:10:27;;;;;;;5.10;1.48;;;;;;;;;;4112538;34;20102;-85
2021/04/08 15:12:55;;;;;;;8.38;1.90;;;;;;;;;;4104921;34;20797;-84
2021/04/08 15:15:24;;;;;;;7.10;1.80;;;;;;;;;;4113953;34;20156;-85
2021/04/08 15:17:51;;;;;;;7.40;2.08;;;;;;;;;;4113991;34;20504;-84